KPUW

Pullman-Moscow Regional Airport

Airport
ICAO code
KPUW
Summary
ICAO Region
NAM
ICAO Territory
Location

Pullman, Washington,

Coordinates
46° 44' 37" N , 117° 6' 34" W
KCC
Airport CFIT
Altimeter Temperature Error Correction
Airport WX
Mountain Waves
Metar
KPUW 222353Z AUTO 00000KT 8SM CLR 36/09 A2989 RMK AO2 SLP098 T03560089 10367 20300 56016

Description

Pullman-Moscow Regional Airport is a public airport located in Whitman County 3 km east of Pullman, Washington and 6 km west of Moscow, Idaho.

Climatology

Semi-arid climate (Köppen climate classification BSk) - Little precipitation, hot summers and cold winters, sometimes with large changes in temperature in a 24 hour period.

Runways

Designator Length Width Surface Rops
5/23 2051 30 ASP Yes/Yes

Airport map

Aerial View

SKYbrary Partners:

Safety knowledge contributed by: